Time;durP1;ratioP1;P1;durP2;ratioP2;P2;SDS_P1;SDS_P2;PMS_P1;PMS_P2;Temp;Humidity;BMP_temperature;BMP_pressure;BME280_temperature;BME280_humidity;BME280_pressure;Samples;Min_cycle;Max_cycle;Signal;HPM_P1;HPM_P2
2023/09/20 00:00:12;;;;;;;8.53;3.67;;;;;;;;;;5010454;28;20100;-64
2023/09/20 00:02:39;;;;;;;10.53;3.67;;;;;;;;;;5009992;28;20588;-64
2023/09/20 00:05:08;;;;;;;15.03;4.07;;;;;;;;;;5021649;28;20068;-64
2023/09/20 00:07:38;;;;;;;10.73;3.28;;;;;;;;;;5029729;28;20050;-64
2023/09/20 00:10:04;;;;;;;13.43;3.10;;;;;;;;;;5030317;28;20052;-64
2023/09/20 00:12:30;;;;;;;14.20;4.10;;;;;;;;;;5029671;28;20053;-64
2023/09/20 00:14:56;;;;;;;11.67;3.63;;;;;;;;;;5029450;28;20114;-64
2023/09/20 00:17:23;;;;;;;12.13;3.50;;;;;;;;;;5029675;28;20124;-64
2023/09/20 00:19:49;;;;;;;9.23;3.70;;;;;;;;;;5029587;28;20057;-64
2023/09/20 00:22:15;;;;;;;11.50;3.37;;;;;;;;;;5029773;28;20060;-64
2023/09/20 00:24:41;;;;;;;10.03;4.07;;;;;;;;;;5028774;28;20049;-64
2023/09/20 00:27:08;;;;;;;11.20;3.63;;;;;;;;;;5029509;28;20136;-64
2023/09/20 00:29:34;;;;;;;10.93;3.60;;;;;;;;;;5029657;28;20451;-64
2023/09/20 00:32:00;;;;;;;11.47;3.10;;;;;;;;;;5029635;28;20049;-64
2023/09/20 00:34:26;;;;;;;10.20;3.03;;;;;;;;;;5028619;28;20517;-63
2023/09/20 00:36:52;;;;;;;15.10;3.67;;;;;;;;;;5028269;28;20056;-64
2023/09/20 00:39:18;;;;;;;8.60;3.27;;;;;;;;;;5029445;28;20045;-63
2023/09/20 00:41:45;;;;;;;8.93;3.60;;;;;;;;;;5028965;28;20079;-63
2023/09/20 00:44:11;;;;;;;10.97;3.37;;;;;;;;;;5028533;28;20065;-63
2023/09/20 00:46:38;;;;;;;11.03;3.43;;;;;;;;;;5029349;28;20045;-64
2023/09/20 00:49:04;;;;;;;13.67;3.63;;;;;;;;;;5029264;28;20052;-64
2023/09/20 00:51:30;;;;;;;11.07;3.40;;;;;;;;;;5028353;28;20467;-64
2023/09/20 00:53:58;;;;;;;11.50;3.17;;;;;;;;;;5028072;28;20049;-63
2023/09/20 00:56:24;;;;;;;12.73;3.37;;;;;;;;;;5029046;28;20056;-63
2023/09/20 00:58:51;;;;;;;9.90;3.43;;;;;;;;;;5028427;28;20049;-63
2023/09/20 01:01:18;;;;;;;15.30;3.27;;;;;;;;;;5029280;28;20072;-63
2023/09/20 01:03:44;;;;;;;9.60;2.90;;;;;;;;;;5028855;28;20451;-64
2023/09/20 01:06:14;;;;;;;7.77;3.40;;;;;;;;;;5028521;28;20049;-63
2023/09/20 01:08:40;;;;;;;10.43;2.77;;;;;;;;;;5028868;28;20045;-63
2023/09/20 01:11:07;;;;;;;7.60;3.10;;;;;;;;;;5028319;28;20050;-63
2023/09/20 01:13:33;;;;;;;14.17;3.50;;;;;;;;;;5028469;28;20132;-63
2023/09/20 01:16:01;;;;;;;12.50;3.40;;;;;;;;;;5028887;28;21103;-63
2023/09/20 01:18:28;;;;;;;9.40;3.07;;;;;;;;;;5027858;28;20053;-63
2023/09/20 01:20:54;;;;;;;9.00;3.40;;;;;;;;;;5028683;28;20059;-63
2023/09/20 01:23:20;;;;;;;9.17;3.13;;;;;;;;;;5027700;28;20049;-63
2023/09/20 01:25:47;;;;;;;9.50;2.90;;;;;;;;;;5028213;28;20061;-63
2023/09/20 01:28:13;;;;;;;10.43;3.40;;;;;;;;;;5027253;28;20048;-63
2023/09/20 01:30:41;;;;;;;11.10;3.70;;;;;;;;;;5028732;28;20045;-62
2023/09/20 01:33:08;;;;;;;8.40;2.77;;;;;;;;;;5028029;28;20140;-63
2023/09/20 01:35:34;;;;;;;7.90;2.73;;;;;;;;;;5028909;28;20049;-62
2023/09/20 01:38:02;;;;;;;12.67;3.10;;;;;;;;;;5027096;28;20447;-63
2023/09/20 01:40:33;;;;;;;9.33;2.70;;;;;;;;;;5028082;28;20065;-62
2023/09/20 01:42:59;;;;;;;9.00;3.00;;;;;;;;;;5027994;28;20045;-62
2023/09/20 01:45:25;;;;;;;10.93;2.87;;;;;;;;;;5027927;28;20081;-62
2023/09/20 01:47:53;;;;;;;9.27;3.83;;;;;;;;;;5028003;28;20045;-62
2023/09/20 01:50:20;;;;;;;11.20;3.17;;;;;;;;;;5027706;28;20052;-63
2023/09/20 01:52:48;;;;;;;11.17;3.17;;;;;;;;;;5027882;28;20057;-63
2023/09/20 01:55:16;;;;;;;15.33;3.20;;;;;;;;;;5027406;28;20459;-62
2023/09/20 01:57:46;;;;;;;11.13;3.30;;;;;;;;;;5027804;28;20049;-62
2023/09/20 02:00:22;;;;;;;10.47;4.37;;;;;;;;;;5027181;28;20456;-62
2023/09/20 02:02:49;;;;;;;7.97;2.60;;;;;;;;;;5028212;28;20057;-62
2023/09/20 02:05:17;;;;;;;8.80;3.00;;;;;;;;;;5027049;28;20107;-62
2023/09/20 02:07:43;;;;;;;10.37;3.07;;;;;;;;;;5027583;28;20427;-62
2023/09/20 02:10:09;;;;;;;10.77;3.00;;;;;;;;;;5027738;28;20524;-62
2023/09/20 02:12:35;;;;;;;15.13;3.10;;;;;;;;;;5028081;28;20140;-62
2023/09/20 02:15:06;;;;;;;7.70;2.53;;;;;;;;;;5027748;28;20160;-62
2023/09/20 02:17:33;;;;;;;10.93;2.80;;;;;;;;;;5028041;28;20049;-62
2023/09/20 02:20:01;;;;;;;9.37;2.90;;;;;;;;;;5027308;28;20450;-62
2023/09/20 02:22:29;;;;;;;9.30;3.30;;;;;;;;;;5027062;28;20549;-62
2023/09/20 02:24:55;;;;;;;10.80;3.07;;;;;;;;;;5026941;28;20088;-62
2023/09/20 02:27:22;;;;;;;10.07;2.90;;;;;;;;;;5027893;28;20108;-62
2023/09/20 02:29:48;;;;;;;10.43;3.10;;;;;;;;;;5027339;28;20500;-62
2023/09/20 02:32:14;;;;;;;14.23;3.07;;;;;;;;;;5027644;28;20396;-62
2023/09/20 02:34:40;;;;;;;6.40;2.40;;;;;;;;;;5027460;28;20047;-62
2023/09/20 02:37:06;;;;;;;15.77;3.63;;;;;;;;;;5027707;28;20045;-61
2023/09/20 02:39:32;;;;;;;11.17;3.20;;;;;;;;;;5027747;28;20132;-62
2023/09/20 02:41:59;;;;;;;11.40;2.83;;;;;;;;;;5027649;28;20049;-62
2023/09/20 02:44:26;;;;;;;9.30;2.90;;;;;;;;;;5027550;28;20057;-62
2023/09/20 02:46:53;;;;;;;12.57;3.87;;;;;;;;;;5027594;28;20045;-62
2023/09/20 02:49:20;;;;;;;10.43;3.63;;;;;;;;;;5028331;28;20128;-62
2023/09/20 02:51:47;;;;;;;11.47;3.13;;;;;;;;;;5027534;28;20049;-62
2023/09/20 02:54:14;;;;;;;12.23;2.80;;;;;;;;;;5026280;28;20058;-62
2023/09/20 02:56:40;;;;;;;16.17;4.00;;;;;;;;;;5027473;28;20045;-62
2023/09/20 02:59:07;;;;;;;12.60;4.27;;;;;;;;;;5027143;28;20049;-62
2023/09/20 03:01:33;;;;;;;11.00;4.00;;;;;;;;;;5026294;28;20045;-62
2023/09/20 03:03:59;;;;;;;11.90;3.50;;;;;;;;;;5027014;28;20049;-62
2023/09/20 03:06:25;;;;;;;13.20;3.53;;;;;;;;;;5027743;28;20045;-61
2023/09/20 03:08:53;;;;;;;10.67;3.30;;;;;;;;;;5027234;28;20084;-62
2023/09/20 03:11:21;;;;;;;13.00;3.73;;;;;;;;;;5027739;28;20053;-61
2023/09/20 03:13:47;;;;;;;11.50;3.67;;;;;;;;;;5027418;28;20502;-61
2023/09/20 03:16:19;;;;;;;11.10;3.27;;;;;;;;;;5029005;28;20129;-61
2023/09/20 03:18:51;;;;;;;12.73;3.20;;;;;;;;;;5030946;28;20042;-61
2023/09/20 03:21:19;;;;;;;15.32;3.10;;;;;;;;;;5030674;28;20083;-61
2023/09/20 03:23:45;;;;;;;11.13;3.30;;;;;;;;;;5030761;28;20053;-61
2023/09/20 03:26:11;;;;;;;8.60;2.80;;;;;;;;;;5029440;28;20053;-62
2023/09/20 03:28:36;;;;;;;12.77;3.33;;;;;;;;;;5030134;28;20107;-61
2023/09/20 03:31:05;;;;;;;12.53;3.50;;;;;;;;;;5030695;28;20388;-61
2023/09/20 03:33:31;;;;;;;12.10;3.37;;;;;;;;;;5031236;28;20479;-62
2023/09/20 03:36:01;;;;;;;10.83;2.57;;;;;;;;;;5030040;28;21474;-61
2023/09/20 03:38:28;;;;;;;6.57;3.13;;;;;;;;;;5030895;28;20045;-61
2023/09/20 03:40:54;;;;;;;12.50;3.23;;;;;;;;;;5030408;28;20132;-62
2023/09/20 03:43:19;;;;;;;11.13;3.27;;;;;;;;;;5030280;28;20064;-61
2023/09/20 03:45:46;;;;;;;9.47;3.33;;;;;;;;;;5029488;28;20053;-62
2023/09/20 03:48:11;;;;;;;8.90;3.20;;;;;;;;;;5030229;28;20079;-61
2023/09/20 03:50:43;;;;;;;12.97;3.33;;;;;;;;;;5030643;28;20077;-62
2023/09/20 03:53:10;;;;;;;11.97;3.23;;;;;;;;;;5030609;28;20049;-61
2023/09/20 03:55:37;;;;;;;13.40;3.47;;;;;;;;;;5030225;28;20076;-62
2023/09/20 03:58:03;;;;;;;8.27;3.00;;;;;;;;;;5030428;28;20049;-62
2023/09/20 04:00:31;;;;;;;16.07;3.77;;;;;;;;;;5030525;28;20099;-61
2023/09/20 04:02:58;;;;;;;13.77;3.43;;;;;;;;;;5030393;28;20123;-61
2023/09/20 04:05:24;;;;;;;16.97;3.83;;;;;;;;;;5030454;28;20041;-62
2023/09/20 04:07:50;;;;;;;10.77;3.50;;;;;;;;;;5029476;28;20041;-61
2023/09/20 04:10:17;;;;;;;9.60;3.20;;;;;;;;;;5030205;28;20170;-62
2023/09/20 04:12:45;;;;;;;12.50;3.40;;;;;;;;;;5029287;28;20144;-61
2023/09/20 04:15:11;;;;;;;6.53;2.93;;;;;;;;;;5029351;28;20050;-61
2023/09/20 04:17:38;;;;;;;14.67;3.67;;;;;;;;;;5030044;28;20050;-62
2023/09/20 04:20:05;;;;;;;12.43;3.80;;;;;;;;;;5029719;28;20455;-61
2023/09/20 04:22:31;;;;;;;9.77;3.10;;;;;;;;;;5029625;28;20514;-61
2023/09/20 04:24:58;;;;;;;14.60;4.27;;;;;;;;;;5030096;28;20045;-62
2023/09/20 04:27:24;;;;;;;13.67;3.80;;;;;;;;;;5028230;28;20136;-62
2023/09/20 04:29:50;;;;;;;9.63;4.27;;;;;;;;;;5029689;28;20128;-62
2023/09/20 04:32:16;;;;;;;8.27;3.47;;;;;;;;;;5028189;28;20079;-61
2023/09/20 04:34:42;;;;;;;10.37;3.20;;;;;;;;;;5029625;28;20569;-61
2023/09/20 04:37:09;;;;;;;10.30;3.73;;;;;;;;;;5029761;28;20075;-61
2023/09/20 04:39:35;;;;;;;10.27;3.57;;;;;;;;;;5028510;28;20049;-62
2023/09/20 04:42:01;;;;;;;16.43;3.77;;;;;;;;;;5028559;28;20168;-62
2023/09/20 04:44:27;;;;;;;12.70;3.43;;;;;;;;;;5028562;28;20068;-62
2023/09/20 04:46:52;;;;;;;12.80;3.47;;;;;;;;;;5029529;28;20045;-61
2023/09/20 04:49:19;;;;;;;10.83;3.17;;;;;;;;;;5027874;28;20606;-62
2023/09/20 04:51:46;;;;;;;15.27;3.47;;;;;;;;;;5028978;28;20556;-61
2023/09/20 04:54:12;;;;;;;9.97;3.87;;;;;;;;;;5029616;28;20055;-61
2023/09/20 04:56:40;;;;;;;11.23;3.17;;;;;;;;;;5029396;28;20057;-61
2023/09/20 04:59:08;;;;;;;9.07;3.00;;;;;;;;;;5028199;28;20530;-62
2023/09/20 05:01:34;;;;;;;9.90;3.53;;;;;;;;;;5028958;28;20056;-61
2023/09/20 05:04:00;;;;;;;13.23;4.13;;;;;;;;;;5028778;28;20084;-62
2023/09/20 05:06:26;;;;;;;12.57;3.37;;;;;;;;;;5029084;28;20065;-62
2023/09/20 05:08:53;;;;;;;9.23;3.70;;;;;;;;;;5029324;28;20048;-62
2023/09/20 05:11:19;;;;;;;11.00;3.33;;;;;;;;;;5028471;28;20555;-62
2023/09/20 05:13:45;;;;;;;12.77;3.57;;;;;;;;;;5029243;28;20117;-61
2023/09/20 05:16:11;;;;;;;11.80;3.07;;;;;;;;;;5028006;28;20038;-61
2023/09/20 05:18:37;;;;;;;9.50;3.27;;;;;;;;;;5027812;28;20041;-61
2023/09/20 05:21:03;;;;;;;9.30;3.37;;;;;;;;;;5029000;28;20045;-62
2023/09/20 05:23:30;;;;;;;7.50;2.87;;;;;;;;;;5028709;28;20049;-62
2023/09/20 05:25:56;;;;;;;6.97;3.03;;;;;;;;;;5028560;28;20061;-61
2023/09/20 05:28:22;;;;;;;7.77;3.00;;;;;;;;;;5026182;28;20048;-62
2023/09/20 05:30:49;;;;;;;10.73;3.17;;;;;;;;;;5026948;28;20037;-61
2023/09/20 05:33:15;;;;;;;9.17;3.60;;;;;;;;;;5027248;28;20095;-61
2023/09/20 05:35:41;;;;;;;10.20;3.27;;;;;;;;;;5028188;28;20046;-61
2023/09/20 05:38:07;;;;;;;10.43;3.30;;;;;;;;;;5028261;28;20045;-62
2023/09/20 05:40:34;;;;;;;12.20;4.37;;;;;;;;;;5027891;28;20439;-65
2023/09/20 05:43:03;;;;;;;8.97;2.90;;;;;;;;;;5026238;28;20049;-65
2023/09/20 05:45:30;;;;;;;7.83;2.60;;;;;;;;;;5028280;28;20494;-62
2023/09/20 05:47:57;;;;;;;7.17;2.77;;;;;;;;;;5026747;28;20428;-61
2023/09/20 05:50:23;;;;;;;8.27;3.10;;;;;;;;;;5027685;28;20508;-62
2023/09/20 05:52:52;;;;;;;8.87;2.97;;;;;;;;;;5027190;28;20092;-61
2023/09/20 05:55:18;;;;;;;11.63;3.03;;;;;;;;;;5026694;28;20041;-61
2023/09/20 05:57:45;;;;;;;11.13;3.20;;;;;;;;;;5027909;28;20072;-61
2023/09/20 06:00:18;;;;;;;12.00;3.10;;;;;;;;;;5025968;28;20540;-61
2023/09/20 06:02:44;;;;;;;9.27;3.25;;;;;;;;;;5028137;28;20435;-61
2023/09/20 06:05:18;;;;;;;11.23;3.30;;;;;;;;;;5028034;28;20041;-62
2023/09/20 06:07:44;;;;;;;7.40;2.90;;;;;;;;;;5027491;28;20049;-61
2023/09/20 06:10:12;;;;;;;7.33;2.90;;;;;;;;;;5030403;28;20559;-61
2023/09/20 06:12:38;;;;;;;7.53;2.60;;;;;;;;;;5048115;28;20070;-61
2023/09/20 06:15:07;;;;;;;9.53;3.60;;;;;;;;;;5028997;28;20037;-62
2023/09/20 06:17:34;;;;;;;12.43;3.10;;;;;;;;;;5027572;28;20053;-61
2023/09/20 06:20:00;;;;;;;13.27;3.37;;;;;;;;;;5026767;28;20120;-62
2023/09/20 06:22:29;;;;;;;9.47;3.13;;;;;;;;;;5027808;28;20141;-61
2023/09/20 06:24:58;;;;;;;9.77;3.10;;;;;;;;;;5026465;28;20050;-61
2023/09/20 06:27:30;;;;;;;6.00;3.07;;;;;;;;;;5027080;28;20041;-62
2023/09/20 06:30:05;;;;;;;13.50;3.40;;;;;;;;;;5025238;28;20041;-61
2023/09/20 06:32:33;;;;;;;9.17;2.93;;;;;;;;;;5026648;28;20049;-62
2023/09/20 06:35:02;;;;;;;8.90;3.80;;;;;;;;;;5027520;28;20053;-61
2023/09/20 06:37:28;;;;;;;10.70;3.57;;;;;;;;;;5026453;28;20053;-61
2023/09/20 06:39:55;;;;;;;9.20;3.30;;;;;;;;;;5026883;28;20061;-61
2023/09/20 06:42:21;;;;;;;14.20;3.50;;;;;;;;;;5027025;28;20115;-61
2023/09/20 06:44:48;;;;;;;9.13;3.30;;;;;;;;;;5027343;28;20447;-61
2023/09/20 06:47:14;;;;;;;8.73;3.30;;;;;;;;;;5026970;28;20046;-62
2023/09/20 06:49:40;;;;;;;9.30;3.17;;;;;;;;;;5027141;28;20034;-61
2023/09/20 06:52:08;;;;;;;8.17;3.03;;;;;;;;;;5031122;28;20048;-61
2023/09/20 06:54:36;;;;;;;7.83;3.00;;;;;;;;;;5031181;28;20072;-61
2023/09/20 06:57:03;;;;;;;8.80;4.07;;;;;;;;;;5031142;28;20045;-61
2023/09/20 06:59:31;;;;;;;9.83;3.50;;;;;;;;;;5030576;28;20045;-61
2023/09/20 07:01:57;;;;;;;9.00;3.20;;;;;;;;;;5030925;28;20060;-62
2023/09/20 07:04:25;;;;;;;11.97;3.33;;;;;;;;;;5031259;28;20100;-61
2023/09/20 07:06:51;;;;;;;10.53;3.10;;;;;;;;;;5031271;28;20049;-61
2023/09/20 07:09:17;;;;;;;12.20;3.60;;;;;;;;;;5030856;28;20042;-61
2023/09/20 07:11:43;;;;;;;10.20;3.43;;;;;;;;;;5030463;28;20042;-61
2023/09/20 07:14:11;;;;;;;10.57;3.30;;;;;;;;;;5030828;28;20092;-62
2023/09/20 07:16:37;;;;;;;10.30;3.30;;;;;;;;;;5030883;28;20085;-61
2023/09/20 07:19:05;;;;;;;8.03;2.93;;;;;;;;;;5030676;28;20083;-61
2023/09/20 07:21:37;;;;;;;10.30;3.27;;;;;;;;;;5030436;28;20096;-61
2023/09/20 07:24:03;;;;;;;9.57;3.40;;;;;;;;;;5030553;28;20080;-61
2023/09/20 07:26:32;;;;;;;8.70;3.50;;;;;;;;;;5030532;28;20084;-61
2023/09/20 07:28:58;;;;;;;11.23;3.20;;;;;;;;;;5030140;28;20053;-62
2023/09/20 07:31:26;;;;;;;9.63;3.03;;;;;;;;;;5030436;28;20046;-61
2023/09/20 07:33:55;;;;;;;10.67;2.90;;;;;;;;;;5030038;28;20045;-62
2023/09/20 07:36:22;;;;;;;8.63;3.10;;;;;;;;;;5030446;28;20155;-62
2023/09/20 07:38:49;;;;;;;6.60;3.13;;;;;;;;;;5030541;28;20042;-62
2023/09/20 07:41:18;;;;;;;6.20;2.90;;;;;;;;;;5029636;28;20054;-61
2023/09/20 07:43:45;;;;;;;7.60;3.33;;;;;;;;;;5030228;28;20046;-61
2023/09/20 07:46:13;;;;;;;11.93;3.67;;;;;;;;;;5029984;28;20096;-61
2023/09/20 07:48:50;;;;;;;7.93;3.43;;;;;;;;;;5030491;28;20126;-61
2023/09/20 07:51:20;;;;;;;10.57;3.00;;;;;;;;;;5029877;28;20458;-61
2023/09/20 07:53:49;;;;;;;8.97;3.30;;;;;;;;;;5030193;28;20525;-61
2023/09/20 07:56:15;;;;;;;8.43;3.00;;;;;;;;;;5030328;28;20077;-61
2023/09/20 07:58:41;;;;;;;8.70;3.10;;;;;;;;;;5030074;28;20046;-61
2023/09/20 08:01:12;;;;;;;9.47;3.10;;;;;;;;;;5029494;28;20103;-61
2023/09/20 08:03:38;;;;;;;9.90;3.23;;;;;;;;;;5028848;28;20067;-61
2023/09/20 08:06:09;;;;;;;7.23;3.07;;;;;;;;;;5030372;28;20084;-61
2023/09/20 08:08:35;;;;;;;5.87;2.63;;;;;;;;;;5030100;28;20041;-61
2023/09/20 08:11:01;;;;;;;5.97;2.73;;;;;;;;;;5029534;28;20053;-61
2023/09/20 08:13:27;;;;;;;10.90;2.80;;;;;;;;;;5029601;28;20097;-61
2023/09/20 08:15:53;;;;;;;7.73;2.60;;;;;;;;;;5029546;28;20149;-61
2023/09/20 08:21:04;;;;;;;8.13;2.80;;;;;;;;;;5029321;28;20057;-60
2023/09/20 09:02:15;;;;;;;7.57;2.30;;;;;;;;;;5028309;28;20080;-61
2023/09/20 09:04:48;;;;;;;6.17;2.50;;;;;;;;;;5029073;28;20052;-60
2023/09/20 09:07:16;;;;;;;5.80;2.28;;;;;;;;;;5028714;28;20096;-60
2023/09/20 09:09:42;;;;;;;9.87;2.80;;;;;;;;;;5028568;28;20057;-60
2023/09/20 09:12:11;;;;;;;11.77;2.50;;;;;;;;;;5028263;28;20103;-61
2023/09/20 09:14:38;;;;;;;6.33;2.50;;;;;;;;;;5028739;28;20053;-60
2023/09/20 09:17:06;;;;;;;6.83;2.27;;;;;;;;;;5027973;28;20050;-60
2023/09/20 09:19:32;;;;;;;6.93;2.10;;;;;;;;;;5028386;28;20364;-61
2023/09/20 09:21:58;;;;;;;7.57;2.47;;;;;;;;;;5028171;28;20049;-61
2023/09/20 09:24:25;;;;;;;6.43;2.30;;;;;;;;;;5028416;28;20136;-61
2023/09/20 09:27:03;;;;;;;6.53;2.53;;;;;;;;;;5028304;28;20045;-61
2023/09/20 09:29:30;;;;;;;6.77;1.90;;;;;;;;;;5028152;28;20041;-60
2023/09/20 09:31:56;;;;;;;5.63;2.13;;;;;;;;;;5028332;28;20053;-60
2023/09/20 09:34:22;;;;;;;10.37;2.80;;;;;;;;;;5028230;28;20427;-61
2023/09/20 09:36:48;;;;;;;4.90;2.27;;;;;;;;;;5027952;28;20045;-60
2023/09/20 09:39:14;;;;;;;6.37;2.20;;;;;;;;;;5028502;28;20476;-61
2023/09/20 09:41:47;;;;;;;9.97;2.70;;;;;;;;;;5028033;28;20057;-61
2023/09/20 09:44:14;;;;;;;5.72;1.63;;;;;;;;;;5027638;28;20053;-61
2023/09/20 09:46:40;;;;;;;7.30;2.37;;;;;;;;;;5028229;28;20096;-61
2023/09/20 09:49:11;;;;;;;5.93;2.00;;;;;;;;;;5027864;28;20080;-61
2023/09/20 09:51:50;;;;;;;7.20;2.47;;;;;;;;;;5028235;28;20088;-60
2023/09/20 09:54:17;;;;;;;5.30;2.13;;;;;;;;;;5027740;28;20503;-61
2023/09/20 09:56:43;;;;;;;6.50;2.30;;;;;;;;;;5027378;28;20538;-60
2023/09/20 09:59:10;;;;;;;6.77;2.40;;;;;;;;;;5028115;28;20447;-61
2023/09/20 10:01:37;;;;;;;5.30;2.10;;;;;;;;;;5027888;28;20041;-61
2023/09/20 10:04:12;;;;;;;7.50;2.00;;;;;;;;;;5027699;28;20053;-61
2023/09/20 10:06:52;;;;;;;4.27;1.83;;;;;;;;;;5027295;28;20455;-61
2023/09/20 10:09:23;;;;;;;7.63;2.13;;;;;;;;;;5027671;28;20042;-60
2023/09/20 10:11:49;;;;;;;3.57;1.70;;;;;;;;;;5027747;28;20076;-60
2023/09/20 10:14:18;;;;;;;5.57;2.30;;;;;;;;;;5027722;28;20046;-60
2023/09/20 10:16:44;;;;;;;14.10;2.50;;;;;;;;;;5027329;28;20469;-61
2023/09/20 10:19:13;;;;;;;6.13;2.30;;;;;;;;;;5027378;28;20045;-60
2023/09/20 10:21:40;;;;;;;5.03;1.73;;;;;;;;;;5027684;28;20497;-62
2023/09/20 10:24:17;;;;;;;4.63;2.13;;;;;;;;;;5027427;28;20053;-60
2023/09/20 10:26:43;;;;;;;5.27;1.90;;;;;;;;;;5031215;28;20068;-61
2023/09/20 10:29:30;;;;;;;9.30;2.30;;;;;;;;;;5031548;28;20046;-61
2023/09/20 10:32:06;;;;;;;4.43;1.60;;;;;;;;;;5031724;28;20060;-61
2023/09/20 10:34:36;;;;;;;3.27;1.70;;;;;;;;;;5031033;28;20049;-61
2023/09/20 10:37:06;;;;;;;5.27;1.70;;;;;;;;;;5031704;28;20056;-61
2023/09/20 10:39:33;;;;;;;6.27;1.83;;;;;;;;;;5031500;28;20081;-61
2023/09/20 10:42:07;;;;;;;5.50;1.93;;;;;;;;;;5031176;28;20535;-61
2023/09/20 10:44:36;;;;;;;4.27;1.63;;;;;;;;;;5031021;28;20336;-60
2023/09/20 10:47:05;;;;;;;3.77;1.87;;;;;;;;;;5031428;28;20125;-60
2023/09/20 10:49:50;;;;;;;3.93;1.70;;;;;;;;;;5031266;28;20138;-61
2023/09/20 10:52:34;;;;;;;5.33;1.57;;;;;;;;;;5030974;28;20057;-64
2023/09/20 10:55:22;;;;;;;4.83;2.13;;;;;;;;;;5030687;28;20056;-61
2023/09/20 10:57:49;;;;;;;5.83;2.10;;;;;;;;;;5031168;28;20099;-60
2023/09/20 11:00:25;;;;;;;7.43;1.90;;;;;;;;;;5030904;28;20060;-61
2023/09/20 11:02:54;;;;;;;8.93;2.07;;;;;;;;;;5030943;28;20085;-61
2023/09/20 11:05:20;;;;;;;6.53;1.83;;;;;;;;;;5031033;28;20060;-61
2023/09/20 11:07:50;;;;;;;7.73;2.10;;;;;;;;;;5030654;28;20133;-60
2023/09/20 11:10:19;;;;;;;3.27;1.60;;;;;;;;;;5031049;28;20087;-61
2023/09/20 11:12:45;;;;;;;5.57;1.87;;;;;;;;;;5030709;28;20415;-61
2023/09/20 11:15:11;;;;;;;5.87;1.87;;;;;;;;;;5030599;28;20046;-61
2023/09/20 11:17:38;;;;;;;4.50;1.70;;;;;;;;;;5030726;28;20074;-61
2023/09/20 11:20:04;;;;;;;5.70;2.00;;;;;;;;;;5030836;28;20052;-60
2023/09/20 11:22:34;;;;;;;6.47;2.03;;;;;;;;;;5030007;28;20408;-61
2023/09/20 11:25:00;;;;;;;4.37;2.17;;;;;;;;;;5030693;28;20049;-60
2023/09/20 11:27:27;;;;;;;5.60;2.37;;;;;;;;;;5030566;28;20049;-61
2023/09/20 11:29:54;;;;;;;4.27;2.10;;;;;;;;;;5062541;28;20053;-61
2023/09/20 11:32:22;;;;;;;5.27;2.13;;;;;;;;;;5030415;28;20045;-61
2023/09/20 11:34:49;;;;;;;4.47;2.30;;;;;;;;;;5029046;28;20570;-62
2023/09/20 11:37:21;;;;;;;5.30;2.03;;;;;;;;;;5030526;28;20044;-61
2023/09/20 11:39:48;;;;;;;7.88;2.60;;;;;;;;;;5030626;28;20056;-61
2023/09/20 11:42:27;;;;;;;6.87;2.33;;;;;;;;;;5027749;28;20419;-61
2023/09/20 11:45:02;;;;;;;6.17;2.10;;;;;;;;;;5029941;28;20045;-61
2023/09/20 11:47:37;;;;;;;7.90;2.60;;;;;;;;;;5030649;28;20049;-62
2023/09/20 11:50:04;;;;;;;6.07;3.13;;;;;;;;;;5030381;28;20052;-62
2023/09/20 11:52:31;;;;;;;8.80;2.70;;;;;;;;;;5027879;28;20376;-62
2023/09/20 11:55:04;;;;;;;5.20;2.50;;;;;;;;;;5030383;28;20079;-62
2023/09/20 11:57:35;;;;;;;5.50;2.83;;;;;;;;;;5030168;28;20132;-61
2023/09/20 12:00:02;;;;;;;9.90;3.40;;;;;;;;;;5029792;28;20045;-62
2023/09/20 12:02:28;;;;;;;6.93;2.50;;;;;;;;;;5029588;28;20041;-61
2023/09/20 12:04:55;;;;;;;8.83;3.00;;;;;;;;;;5029933;28;20037;-62
2023/09/20 12:07:20;;;;;;;7.43;3.20;;;;;;;;;;5029712;28;20403;-62
2023/09/20 12:09:46;;;;;;;8.90;3.27;;;;;;;;;;5028837;28;20049;-61
2023/09/20 12:12:12;;;;;;;5.23;2.40;;;;;;;;;;5029109;28;20052;-61
2023/09/20 12:14:38;;;;;;;5.77;2.83;;;;;;;;;;5030108;28;20080;-61
2023/09/20 12:17:06;;;;;;;6.07;2.77;;;;;;;;;;5029851;28;20419;-62
2023/09/20 12:19:32;;;;;;;9.57;3.00;;;;;;;;;;5027577;28;20048;-62
2023/09/20 12:22:00;;;;;;;5.57;3.00;;;;;;;;;;5029670;28;20033;-61
2023/09/20 12:24:26;;;;;;;4.80;2.43;;;;;;;;;;5029872;28;20068;-61
2023/09/20 12:26:54;;;;;;;5.53;3.07;;;;;;;;;;5030142;28;20338;-62
2023/09/20 12:29:20;;;;;;;5.37;2.70;;;;;;;;;;5029766;28;20396;-62
2023/09/20 12:31:49;;;;;;;6.70;2.60;;;;;;;;;;5029930;28;20649;-61
2023/09/20 12:34:16;;;;;;;5.30;2.35;;;;;;;;;;5029835;28;20482;-62
2023/09/20 12:36:42;;;;;;;5.03;2.63;;;;;;;;;;5030278;28;20081;-62
2023/09/20 12:39:10;;;;;;;7.68;2.75;;;;;;;;;;5028987;28;20095;-62
2023/09/20 12:41:37;;;;;;;7.70;2.60;;;;;;;;;;5029396;28;20065;-61
2023/09/20 12:44:04;;;;;;;7.93;2.90;;;;;;;;;;5029818;28;20523;-62
2023/09/20 12:46:31;;;;;;;4.93;2.23;;;;;;;;;;5029475;28;20132;-62
2023/09/20 12:48:57;;;;;;;6.40;2.07;;;;;;;;;;5028235;28;20049;-62
2023/09/20 12:51:24;;;;;;;8.87;2.97;;;;;;;;;;5028781;28;20549;-62
2023/09/20 12:53:50;;;;;;;5.43;2.83;;;;;;;;;;5027904;28;20099;-61
2023/09/20 12:56:16;;;;;;;5.20;2.30;;;;;;;;;;5027193;28;20133;-61
2023/09/20 12:58:42;;;;;;;5.57;1.60;;;;;;;;;;5026220;28;20052;-62
2023/09/20 13:01:11;;;;;;;4.97;2.20;;;;;;;;;;5028672;28;20053;-62
2023/09/20 13:03:40;;;;;;;5.33;2.63;;;;;;;;;;5024604;28;20053;-62
2023/09/20 13:06:07;;;;;;;4.70;2.20;;;;;;;;;;5031284;28;20156;-61
2023/09/20 13:08:33;;;;;;;8.07;2.53;;;;;;;;;;5040172;28;20049;-62
2023/09/20 13:10:59;;;;;;;8.93;2.43;;;;;;;;;;5027862;28;20049;-62
2023/09/20 13:13:26;;;;;;;5.63;2.50;;;;;;;;;;5028735;28;20056;-62
2023/09/20 13:15:52;;;;;;;6.00;2.27;;;;;;;;;;5027500;28;20057;-61
2023/09/20 13:18:18;;;;;;;4.37;2.17;;;;;;;;;;5040630;28;20131;-61
2023/09/20 13:20:44;;;;;;;6.25;2.42;;;;;;;;;;5038104;28;20169;-61
2023/09/20 13:23:10;;;;;;;8.45;2.75;;;;;;;;;;5026910;28;20041;-61
2023/09/20 13:25:39;;;;;;;4.57;2.10;;;;;;;;;;5028754;28;20049;-62
2023/09/20 13:28:07;;;;;;;7.40;2.65;;;;;;;;;;5021972;28;20108;-61
2023/09/20 13:30:35;;;;;;;7.83;2.17;;;;;;;;;;5025860;28;20099;-62
2023/09/20 13:33:01;;;;;;;4.93;2.10;;;;;;;;;;5028889;28;20172;-62
2023/09/20 13:35:27;;;;;;;6.85;1.85;;;;;;;;;;5028557;28;20045;-62
2023/09/20 13:37:53;;;;;;;7.82;1.98;;;;;;;;;;5027590;28;20503;-62
2023/09/20 13:40:22;;;;;;;4.90;2.13;;;;;;;;;;5028797;28;20117;-61
2023/09/20 13:42:49;;;;;;;3.60;1.93;;;;;;;;;;5025500;28;20132;-62
2023/09/20 13:45:16;;;;;;;4.20;2.10;;;;;;;;;;5027451;28;20089;-62
2023/09/20 13:47:42;;;;;;;4.10;1.80;;;;;;;;;;5027668;28;20045;-62
2023/09/20 13:50:09;;;;;;;5.40;2.00;;;;;;;;;;5027549;28;20598;-67
2023/09/20 13:52:35;;;;;;;3.63;1.97;;;;;;;;;;5027254;28;20052;-65
2023/09/20 13:55:05;;;;;;;7.07;2.53;;;;;;;;;;5026868;28;20057;-62
2023/09/20 13:57:33;;;;;;;3.93;2.10;;;;;;;;;;5027593;28;20101;-62
2023/09/20 14:00:09;;;;;;;3.40;1.80;;;;;;;;;;5026669;28;20104;-61
2023/09/20 14:02:36;;;;;;;5.60;1.70;;;;;;;;;;5027909;28;20045;-61
2023/09/20 14:05:02;;;;;;;4.50;2.17;;;;;;;;;;5027585;28;20049;-62
2023/09/20 14:07:28;;;;;;;3.83;2.10;;;;;;;;;;5028487;28;20037;-62
2023/09/20 14:09:54;;;;;;;5.00;1.80;;;;;;;;;;5027823;28;20124;-62
2023/09/20 14:12:21;;;;;;;5.35;2.00;;;;;;;;;;5027547;28;20084;-61
2023/09/20 14:14:50;;;;;;;4.25;2.20;;;;;;;;;;5025848;28;20072;-61
2023/09/20 14:17:16;;;;;;;4.65;2.00;;;;;;;;;;5024972;28;20784;-62
2023/09/20 14:19:43;;;;;;;4.65;2.10;;;;;;;;;;5022827;28;20041;-62
2023/09/20 14:22:10;;;;;;;3.97;2.20;;;;;;;;;;5007519;28;20143;-62
2023/09/20 14:24:36;;;;;;;5.47;2.00;;;;;;;;;;5007500;28;20416;-62
2023/09/20 14:27:03;;;;;;;5.88;1.85;;;;;;;;;;5007186;28;20056;-62
2023/09/20 14:29:29;;;;;;;4.45;1.90;;;;;;;;;;5007399;28;20136;-62
2023/09/20 14:31:55;;;;;;;7.60;1.90;;;;;;;;;;5007920;28;20133;-62
2023/09/20 14:34:21;;;;;;;4.15;1.75;;;;;;;;;;5008149;28;20138;-62
2023/09/20 14:36:47;;;;;;;4.95;1.70;;;;;;;;;;5008156;28;20058;-62
2023/09/20 14:39:13;;;;;;;4.72;1.80;;;;;;;;;;5008108;28;20050;-62
2023/09/20 14:41:39;;;;;;;5.72;2.00;;;;;;;;;;5008182;28;20050;-61
2023/09/20 14:44:06;;;;;;;4.80;1.75;;;;;;;;;;5008121;28;20045;-62
2023/09/20 14:46:35;;;;;;;4.93;2.13;;;;;;;;;;5008141;28;20074;-62
2023/09/20 14:49:01;;;;;;;5.03;2.20;;;;;;;;;;5008429;28;20061;-62
2023/09/20 14:51:27;;;;;;;4.68;1.58;;;;;;;;;;5007853;28;20054;-62
2023/09/20 14:53:53;;;;;;;5.53;2.05;;;;;;;;;;5007939;28;20543;-61
2023/09/20 14:56:19;;;;;;;4.23;1.90;;;;;;;;;;5007844;28;20050;-61
2023/09/20 14:58:45;;;;;;;5.23;1.73;;;;;;;;;;5008257;28;20497;-62
2023/09/20 15:01:20;;;;;;;5.40;2.33;;;;;;;;;;5008173;28;20129;-62
2023/09/20 15:03:46;;;;;;;4.93;1.80;;;;;;;;;;5008153;28;20046;-62
2023/09/20 15:06:19;;;;;;;5.00;1.97;;;;;;;;;;5007369;28;20077;-62
2023/09/20 15:08:46;;;;;;;7.57;2.50;;;;;;;;;;5008026;28;20085;-62
2023/09/20 15:11:18;;;;;;;6.83;2.10;;;;;;;;;;5008565;28;20050;-62
2023/09/20 15:13:44;;;;;;;4.13;1.95;;;;;;;;;;5011568;28;20050;-62
2023/09/20 15:16:15;;;;;;;5.57;1.73;;;;;;;;;;5011123;28;20449;-62
2023/09/20 15:18:42;;;;;;;6.20;1.70;;;;;;;;;;5011501;28;20076;-62
2023/09/20 15:21:09;;;;;;;6.50;1.70;;;;;;;;;;5011258;28;20416;-61